Aérodrome :
LOGIN :

S'inscrire | Disclaimer

   EN    FR    IT 

 










Légende :    VFR   VFR Marginal   IFR   IFR Intensif   IFR Très Intensif
Visi : 
Plafond : 
>= 8 km
>= 3000ft
5 à 8 km
1000 à 3000 ft
1500m à 5 km
500 à 1000 ft
800 à 1500m
200 à 500 ft
< 800m
< 200 ft
Symboles :   Orages  Brouillard  Fortes neiges  Fortes précipitations  Vent > 20 kt
SIGMETs :   Divers  Orages  Givrage  Turbulence  Onde Orograph.  Cendres Volcan.







- Altitude de l'aérodrome : 1079 ft


ETIK - Illesheim Air Base

DERNIER METAR :
  • 140356Z AUTO 23012KT 9999 FEW080 05/04 A2935 RMK AO2 PK WND 24027/0259 SLP951 T00520037 $

METARs EXPIRÉS :
  • 140256Z AUTO 24018G24KT 9999 BKN025 06/05 A2937 RMK AO2 PK WND 24026/36 SLP956 60003 T00570047 53005 $
  • 140156Z AUTO 23014KT 9999 SCT017 BKN023 BKN070 06/05 A2937 RMK AO2 RAE45 CIG 016V023 SLP956 P0002 T00550052 $
  • 140145Z AUTO 22015G22KT 9999 BKN018 OVC024 06/05 A2937 RMK AO2 RAE45 BKN V OVC SLP956 $

TAF AMD TAF ETIK
Valide du 14 à 03h jusqu'au 15 à 04h UTC


140326Z 1403/1504 24015G25KT 8000 -RA BKN020 610209 520003 QNH2941INS
TEMPO 1403/1404 24025G35KT
TEMPO 1404/1407 24035G45KT
BECMG 1408/1409 25012G20KT 9999 NSW BKN030 520003 QNH2947INS
TEMPO 1409/1412 25020G35KT TX07/1412Z TN02/1403Z
Pas de NOTAMs connus pour ce terrain.
1 SIGMET publié pour la FIR Langen (EDGG) :
 
Turbulence forte
EDGG SIGMET 1 VALID 140200/140500 EDZF
EDGG LANGEN FIR SEV TURB FCST S OF N4930 SFC/5000FT MOV E NC=



MET'MAP, la Météo Aéronautique d'un coup d'oeil ! - Copyright ORBIFLY Décembre 2007 - Disclaimer

ORBIFLY MET'MAP TEAM :

Programmation & Développement : Alexandra Zaïnal
Conception & Développement : Baudouin d'Aumeries
Co-Programmation & Développement : Marc-Olivier Méhu
Soutien technique & logistique : Manuel Goepfert

Contact : metmap@orbifly.com




SOURCES & CREDITS :

   NOAA